Time;durP1;ratioP1;P1;durP2;ratioP2;P2;SDS_P1;SDS_P2;PMS_P1;PMS_P2;Temp;Humidity;BMP_temperature;BMP_pressure;BME280_temperature;BME280_humidity;BME280_pressure;Samples;Min_cycle;Max_cycle;Signal;HPM_P1;HPM_P2
2021/11/29 00:07:36;;;;;;;35.9;48.8;;;;;;;1.7;83.2;96530;;;;
2021/11/29 00:18:36;;;;;;;35.9;48.8;;;;;;;1.8;83.2;96550;;;;
2021/11/29 00:28:36;;;;;;;35.9;48.8;;;;;;;1.8;83.5;96560;;;;
2021/11/29 00:38:36;;;;;;;35.3;44.7;;;;;;;1.7;83.6;96540;;;;
2021/11/29 00:48:36;;;;;;;35.3;44.7;;;;;;;1.7;83.6;96570;;;;
2021/11/29 00:58:36;;;;;;;35.3;44.7;;;;;;;1.8;83.6;96580;;;;
2021/11/29 01:09:36;;;;;;;36.7;52.5;;;;;;;1.7;84;96580;;;;
2021/11/29 01:19:36;;;;;;;36.7;52.5;;;;;;;1.6;84.1;96570;;;;
2021/11/29 01:30:36;;;;;;;36.7;52.5;;;;;;;1.7;84.3;96560;;;;
2021/11/29 01:41:36;;;;;;;35.6;46.6;;;;;;;1.5;84.6;96570;;;;
2021/11/29 01:52:36;;;;;;;35.6;46.6;;;;;;;1.4;84.7;96590;;;;
2021/11/29 02:02:36;;;;;;;26.2;34.7;;;;;;;1.6;84.4;96580;;;;
2021/11/29 02:12:36;;;;;;;26.2;34.7;;;;;;;1.5;84.6;96590;;;;
2021/11/29 02:22:36;;;;;;;26.2;34.7;;;;;;;1.7;84.3;96580;;;;
2021/11/29 02:32:36;;;;;;;26.2;34.7;;;;;;;1.6;84.5;96580;;;;
2021/11/29 02:43:36;;;;;;;26.2;34.7;;;;;;;1.6;84.4;96590;;;;
2021/11/29 02:54:36;;;;;;;26.2;34.7;;;;;;;1.7;84.4;96590;;;;
2021/11/29 03:05:36;;;;;;;27.2;36.4;;;;;;;1.7;84.2;96590;;;;
2021/11/29 03:15:36;;;;;;;27.2;36.4;;;;;;;1.6;84.3;96600;;;;
2021/11/29 03:26:36;;;;;;;27.2;36.4;;;;;;;1.6;84.2;96610;;;;
2021/11/29 03:36:36;;;;;;;24.1;30.1;;;;;;;1.7;84.1;96600;;;;
2021/11/29 03:46:36;;;;;;;24.1;30.1;;;;;;;1.6;83.9;96600;;;;
2021/11/29 03:56:36;;;;;;;24.1;30.1;;;;;;;1.6;84;96590;;;;
2021/11/29 04:07:36;;;;;;;23.1;29.4;;;;;;;1.6;84.2;96590;;;;
2021/11/29 04:18:36;;;;;;;23.1;29.4;;;;;;;1.5;83.9;96590;;;;
2021/11/29 04:28:36;;;;;;;23.1;29.4;;;;;;;1.6;83.9;96590;;;;
2021/11/29 04:38:36;;;;;;;20.5;24.4;;;;;;;1.6;83.8;96600;;;;
2021/11/29 04:48:36;;;;;;;20.5;24.4;;;;;;;1.6;83.5;96620;;;;
2021/11/29 04:59:36;;;;;;;20.5;24.4;;;;;;;1.6;83;96620;;;;
2021/11/29 05:09:36;;;;;;;19.8;24.6;;;;;;;1.6;82.9;96620;;;;
2021/11/29 05:19:36;;;;;;;19.8;24.6;;;;;;;1.6;82.7;96620;;;;
2021/11/29 05:30:36;;;;;;;19.9;25.3;;;;;;;1.6;82.6;96620;;;;
2021/11/29 05:40:36;;;;;;;19.9;25.3;;;;;;;1.7;82.5;96620;;;;
2021/11/29 05:51:36;;;;;;;19.9;25.3;;;;;;;1.6;82.7;96650;;;;
2021/11/29 06:01:36;;;;;;;19.3;22.7;;;;;;;1.5;82.9;96650;;;;
2021/11/29 06:12:37;;;;;;;19.3;22.7;;;;;;;1.6;82.8;96680;;;;
2021/11/29 06:22:36;;;;;;;19.3;22.7;;;;;;;1.5;83;96700;;;;
2021/11/29 06:33:36;;;;;;;23.1;28.5;;;;;;;1.5;83.3;96690;;;;
2021/11/29 06:43:36;;;;;;;23.1;28.5;;;;;;;1.6;83.4;96700;;;;
2021/11/29 06:53:36;;;;;;;23.1;28.5;;;;;;;1.6;83.4;96720;;;;
2021/11/29 07:03:36;;;;;;;23.1;31.3;;;;;;;1.6;83.4;96730;;;;
2021/11/29 07:13:36;;;;;;;23.1;31.3;;;;;;;1.5;83.4;96730;;;;
2021/11/29 07:23:36;;;;;;;23.1;31.3;;;;;;;1.7;83;96740;;;;
2021/11/29 07:34:36;;;;;;;25.7;32.5;;;;;;;1.6;83.5;96740;;;;
2021/11/29 07:44:36;;;;;;;25.7;32.5;;;;;;;1.6;83.6;96750;;;;
2021/11/29 07:55:36;;;;;;;25.7;32.5;;;;;;;1.6;83.5;96750;;;;
2021/11/29 08:06:36;;;;;;;25;29.3;;;;;;;1.5;83.7;96760;;;;
2021/11/29 08:17:36;;;;;;;25;29.3;;;;;;;1.6;83.6;96770;;;;
2021/11/29 08:28:36;;;;;;;25;29.3;;;;;;;1.5;82.9;96780;;;;
2021/11/29 08:38:36;;;;;;;21.8;30.1;;;;;;;1.8;82.4;96790;;;;
2021/11/29 08:48:36;;;;;;;21.8;30.1;;;;;;;1.9;82;96790;;;;
2021/11/29 08:58:36;;;;;;;21.8;30.1;;;;;;;2;81.6;96800;;;;
2021/11/29 09:09:36;;;;;;;21.7;26.6;;;;;;;2;81.1;96800;;;;
2021/11/29 09:20:38;;;;;;;21.7;26.6;;;;;;;1.9;81.2;96810;;;;
2021/11/29 09:30:36;;;;;;;18.9;24.6;;;;;;;1.9;80.9;96810;;;;
2021/11/29 09:41:36;;;;;;;18.9;24.6;;;;;;;1.8;81.2;96820;;;;
2021/11/29 09:52:36;;;;;;;18.9;24.6;;;;;;;1.8;80.7;96820;;;;
2021/11/29 10:02:36;;;;;;;20.9;27.3;;;;;;;2;80.3;96820;;;;
2021/11/29 10:12:36;;;;;;;20.9;27.3;;;;;;;1.8;80.6;96830;;;;
2021/11/29 10:22:37;;;;;;;20.9;27.3;;;;;;;1.9;80.3;96830;;;;
2021/11/29 10:32:36;;;;;;;24.9;29.1;;;;;;;1.9;80.3;96850;;;;
2021/11/29 10:43:36;;;;;;;24.9;29.1;;;;;;;1.7;80.9;96860;;;;
2021/11/29 10:53:36;;;;;;;24.9;29.1;;;;;;;1.7;80.9;96850;;;;
2021/11/29 11:03:36;;;;;;;22.8;27.2;;;;;;;1.6;81;96870;;;;
2021/11/29 11:13:36;;;;;;;22.8;27.2;;;;;;;1.6;81.2;96870;;;;
2021/11/29 11:24:36;;;;;;;22.8;27.2;;;;;;;1.6;81;96870;;;;
2021/11/29 11:34:36;;;;;;;22.3;28.6;;;;;;;1.5;81.1;96880;;;;
2021/11/29 11:44:37;;;;;;;22.3;28.6;;;;;;;1.6;81;96870;;;;
2021/11/29 11:54:40;;;;;;;22.3;28.6;;;;;;;1.6;80.9;96880;;;;
2021/11/29 12:04:36;;;;;;;24.1;28.4;;;;;;;1.7;80.4;96890;;;;
2021/11/29 12:15:36;;;;;;;24.1;28.4;;;;;;;1.6;80.2;96900;;;;
2021/11/29 12:25:41;;;;;;;24.1;28.4;;;;;;;1.7;79.7;96900;;;;
2021/11/29 12:36:37;;;;;;;19.8;24.4;;;;;;;1.6;79.7;96910;;;;
2021/11/29 12:46:36;;;;;;;19.8;24.4;;;;;;;1.5;79.6;96920;;;;
2021/11/29 12:57:38;;;;;;;19.8;24.4;;;;;;;1.6;79.6;96920;;;;
2021/11/29 13:07:36;;;;;;;18.6;24.7;;;;;;;1.4;80.1;96940;;;;
2021/11/29 13:17:36;;;;;;;18.6;24.7;;;;;;;1.5;80.2;96940;;;;
2021/11/29 13:28:36;;;;;;;18.6;24.7;;;;;;;1.3;80.6;96950;;;;
2021/11/29 13:39:36;;;;;;;24.4;28.5;;;;;;;1.4;80.4;96980;;;;
2021/11/29 13:49:36;;;;;;;24.4;28.5;;;;;;;1.3;80.1;96980;;;;
2021/11/29 14:00:36;;;;;;;20.1;25;;;;;;;1.2;80.4;97000;;;;
2021/11/29 14:10:36;;;;;;;20.1;25;;;;;;;1.2;80.2;97010;;;;
2021/11/29 14:20:36;;;;;;;20.1;25;;;;;;;1.1;80;97020;;;;
2021/11/29 14:30:36;;;;;;;17.4;22.2;;;;;;;1.3;79.4;97030;;;;
2021/11/29 14:41:36;;;;;;;17.4;22.2;;;;;;;1.2;78.7;97050;;;;
2021/11/29 14:52:36;;;;;;;17.4;22.2;;;;;;;1.2;78.2;97080;;;;
2021/11/29 15:02:36;;;;;;;16.5;22.4;;;;;;;1.1;77.7;97080;;;;
2021/11/29 15:12:36;;;;;;;16.5;22.4;;;;;;;1.1;78.1;97110;;;;
2021/11/29 15:23:36;;;;;;;16.5;22.4;;;;;;;1.1;77;97120;;;;
2021/11/29 15:34:36;;;;;;;16.4;23.9;;;;;;;1.1;75.7;97140;;;;
2021/11/29 15:44:36;;;;;;;16.4;23.9;;;;;;;1.1;75.1;97150;;;;
2021/11/29 15:54:36;;;;;;;16.4;23.9;;;;;;;1.1;75.3;97170;;;;
2021/11/29 16:04:36;;;;;;;15.6;22;;;;;;;1;74.4;97180;;;;
2021/11/29 16:15:37;;;;;;;15.6;22;;;;;;;1.2;74.6;97200;;;;
2021/11/29 16:25:38;;;;;;;15.6;22;;;;;;;1.2;75.2;97210;;;;
2021/11/29 16:36:36;;;;;;;15.5;22.2;;;;;;;1.2;75.3;97230;;;;
2021/11/29 16:47:37;;;;;;;15.5;22.2;;;;;;;1.3;74.8;97240;;;;
2021/11/29 16:57:38;;;;;;;15.5;22.2;;;;;;;1.3;74.9;97260;;;;
2021/11/29 17:08:36;;;;;;;13.9;17.9;;;;;;;1.3;74.9;97260;;;;
2021/11/29 17:18:36;;;;;;;13.9;17.9;;;;;;;1.4;74.5;97280;;;;
2021/11/29 17:28:36;;;;;;;13.7;17.9;;;;;;;1.4;74.6;97280;;;;
2021/11/29 17:39:37;;;;;;;13.7;17.9;;;;;;;1.4;75;97280;;;;
2021/11/29 17:49:38;;;;;;;13.7;17.9;;;;;;;1.4;75.4;97290;;;;
2021/11/29 17:59:36;;;;;;;19.5;25.8;;;;;;;1.4;75;97290;;;;
2021/11/29 18:09:56;;;;;;;19.5;25.8;;;;;;;1.5;74.7;97290;;;;
2021/11/29 18:20:36;;;;;;;19.5;25.8;;;;;;;1.4;75.1;97300;;;;
2021/11/29 18:31:37;;;;;;;18.4;22.9;;;;;;;1.4;75.3;97300;;;;
2021/11/29 18:41:38;;;;;;;18.4;22.9;;;;;;;1.3;75.6;97300;;;;
2021/11/29 18:52:36;;;;;;;18.4;22.9;;;;;;;1.4;76;97310;;;;
2021/11/29 19:02:36;;;;;;;23.1;31.9;;;;;;;1.5;76.2;97310;;;;
2021/11/29 19:12:36;;;;;;;23.1;31.9;;;;;;;1.5;76;97310;;;;
2021/11/29 19:22:37;;;;;;;23.1;31.9;;;;;;;1.5;76.3;97320;;;;
2021/11/29 19:33:36;;;;;;;24;30.9;;;;;;;1.6;76.5;97330;;;;
2021/11/29 19:43:36;;;;;;;24;30.9;;;;;;;1.6;76;97340;;;;
2021/11/29 19:54:37;;;;;;;24;30.9;;;;;;;1.6;75.7;97360;;;;
2021/11/29 20:04:37;;;;;;;26.8;33.9;;;;;;;1.6;75.8;97350;;;;
2021/11/29 20:14:37;;;;;;;26.8;33.9;;;;;;;1.7;75.9;97350;;;;
2021/11/29 20:25:36;;;;;;;26.8;33.9;;;;;;;1.7;75.9;97360;;;;
2021/11/29 20:36:37;;;;;;;23.4;29.4;;;;;;;1.6;75.9;97370;;;;
2021/11/29 20:47:37;;;;;;;23.4;29.4;;;;;;;1.7;75.1;97380;;;;
2021/11/29 20:58:36;;;;;;;21.8;31.1;;;;;;;1.7;74.9;97390;;;;
2021/11/29 21:08:37;;;;;;;21.8;31.1;;;;;;;1.7;74.7;97380;;;;
2021/11/29 21:18:36;;;;;;;21.8;31.1;;;;;;;1.7;74.8;97390;;;;
2021/11/29 21:28:38;;;;;;;24.5;29.9;;;;;;;1.7;74.9;97400;;;;
2021/11/29 21:38:37;;;;;;;24.5;29.9;;;;;;;1.8;75.2;97410;;;;
2021/11/29 21:48:37;;;;;;;24.5;29.9;;;;;;;1.7;75.2;97420;;;;
2021/11/29 21:59:36;;;;;;;28.7;37.4;;;;;;;1.8;75;97430;;;;
2021/11/29 22:10:37;;;;;;;28.7;37.4;;;;;;;1.9;74.8;97430;;;;
2021/11/29 22:20:37;;;;;;;28.7;37.4;;;;;;;1.8;74.2;97430;;;;
2021/11/29 22:30:37;;;;;;;24.3;29.5;;;;;;;1.9;73.8;97440;;;;
2021/11/29 22:40:37;;;;;;;24.3;29.5;;;;;;;1.8;73.7;97440;;;;
2021/11/29 22:50:37;;;;;;;24.3;29.5;;;;;;;1.9;73.7;97440;;;;
2021/11/29 23:01:38;;;;;;;21.8;25.9;;;;;;;1.8;73.8;97440;;;;
2021/11/29 23:11:37;;;;;;;21.8;25.9;;;;;;;1.8;73.9;97440;;;;
2021/11/29 23:21:37;;;;;;;21.8;25.9;;;;;;;1.9;74;97450;;;;
2021/11/29 23:32:37;;;;;;;22.6;28.8;;;;;;;1.8;73.9;97470;;;;
2021/11/29 23:42:37;;;;;;;22.6;28.8;;;;;;;1.8;74.8;97470;;;;
2021/11/29 23:52:38;;;;;;;22.6;28.8;;;;;;;1.7;76;97480;;;;
